Time;durP1;ratioP1;P1;durP2;ratioP2;P2;SDS_P1;SDS_P2;PMS_P1;PMS_P2;Temp;Humidity;BMP_temperature;BMP_pressure;BME280_temperature;BME280_humidity;BME280_pressure;Samples;Min_cycle;Max_cycle;Signal;HPM_P1;HPM_P2
2021/12/14 00:00:18;;;;;;;10.00;9.70;;;5.70;99.90;;;;;;5127198;28;20221;-82
2021/12/14 00:02:50;;;;;;;9.83;9.53;;;5.70;99.90;;;;;;5122095;27;20282;-82
2021/12/14 00:05:22;;;;;;;9.90;9.60;;;5.70;99.90;;;;;;5127019;28;20232;-82
2021/12/14 00:07:53;;;;;;;9.90;9.60;;;5.70;99.90;;;;;;5122272;28;20231;-81
2021/12/14 00:10:44;;;;;;;9.90;9.60;;;5.70;99.90;;;;;;5119654;28;20228;-82
2021/12/14 00:13:27;;;;;;;10.00;9.70;;;5.70;99.90;;;;;;5120078;28;20243;-81
2021/12/14 00:16:00;;;;;;;10.00;9.70;;;5.70;99.90;;;;;;5119944;28;20237;-82
2021/12/14 00:18:28;;;;;;;9.90;9.60;;;5.70;99.90;;;;;;5119644;28;20220;-81
2021/12/14 00:21:01;;;;;;;10.10;9.80;;;5.70;99.90;;;;;;5118482;27;20229;-82
2021/12/14 00:26:19;;;;;;;10.17;9.87;;;5.70;99.90;;;;;;5119147;28;20213;-82
2021/12/14 00:28:50;;;;;;;9.90;9.60;;;5.70;99.90;;;;;;5146539;22;20297;-83
2021/12/14 00:31:21;;;;;;;9.90;9.60;;;5.70;99.90;;;;;;5129982;27;20229;-83
2021/12/14 00:33:51;;;;;;;10.00;9.70;;;5.70;99.90;;;;;;5125673;27;20217;-83
2021/12/14 00:36:21;;;;;;;9.90;9.60;;;5.60;99.90;;;;;;5145206;27;20234;-83
2021/12/14 00:38:56;;;;;;;9.93;9.63;;;5.60;99.90;;;;;;5117561;27;20229;-83
2021/12/14 00:41:31;;;;;;;9.90;9.60;;;5.60;99.90;;;;;;5104356;28;20256;-83
2021/12/14 00:44:01;;;;;;;10.17;9.87;;;5.60;99.90;;;;;;5106682;28;20230;-84
2021/12/14 00:46:30;;;;;;;10.00;9.70;;;5.60;99.90;;;;;;5116621;28;20234;-82
2021/12/14 00:48:58;;;;;;;9.90;9.60;;;5.60;99.90;;;;;;5104443;28;20241;-82
2021/12/14 00:51:27;;;;;;;10.10;9.80;;;5.60;99.90;;;;;;5103781;28;20294;-82
2021/12/14 00:54:01;;;;;;;10.10;9.80;;;5.70;99.90;;;;;;5103527;28;20229;-83
2021/12/14 00:56:33;;;;;;;10.00;9.70;;;5.70;99.90;;;;;;5103909;28;20225;-82
2021/12/14 00:59:03;;;;;;;10.10;9.80;;;5.70;99.90;;;;;;5111076;28;20412;-81
2021/12/14 01:01:39;;;;;;;9.70;9.40;;;5.70;99.90;;;;;;5112570;28;20709;-82
2021/12/14 01:04:13;;;;;;;9.90;9.60;;;5.70;99.90;;;;;;5105881;28;20317;-82
2021/12/14 01:06:45;;;;;;;9.70;9.40;;;5.70;99.90;;;;;;5103504;28;20232;-82
2021/12/14 01:09:14;;;;;;;9.77;9.47;;;5.60;99.90;;;;;;5103702;28;20233;-82
2021/12/14 01:11:46;;;;;;;9.73;9.43;;;5.60;99.90;;;;;;5103146;28;20233;-82
2021/12/14 01:14:23;;;;;;;9.90;9.60;;;5.60;99.90;;;;;;5103878;28;20233;-82
2021/12/14 01:17:08;;;;;;;9.80;9.50;;;5.50;99.90;;;;;;5103413;28;20236;-82
2021/12/14 01:19:39;;;;;;;10.00;9.70;;;5.50;99.90;;;;;;5103533;28;20229;-82
2021/12/14 01:22:19;;;;;;;9.90;9.60;;;5.50;99.90;;;;;;5102544;28;20299;-82
2021/12/14 01:25:06;;;;;;;9.90;9.60;;;5.50;99.90;;;;;;5101886;28;20233;-82
2021/12/14 01:27:45;;;;;;;10.00;9.70;;;5.50;99.90;;;;;;5103207;28;20229;-82
2021/12/14 01:30:27;;;;;;;9.80;9.50;;;5.50;99.90;;;;;;5102343;28;20245;-82
2021/12/14 01:33:02;;;;;;;9.73;9.43;;;5.40;99.90;;;;;;5109941;28;20218;-82
2021/12/14 01:35:32;;;;;;;9.63;9.33;;;5.40;99.90;;;;;;5102221;28;20229;-82
2021/12/14 01:38:16;;;;;;;9.93;9.63;;;5.40;99.90;;;;;;5102934;28;20306;-82
2021/12/14 01:40:53;;;;;;;10.00;9.70;;;5.40;99.90;;;;;;5102033;28;20237;-82
2021/12/14 01:43:27;;;;;;;10.00;9.70;;;5.40;99.90;;;;;;5103035;28;20280;-82
2021/12/14 01:46:00;;;;;;;10.00;9.70;;;5.30;99.90;;;;;;5102658;28;20205;-82
2021/12/14 01:48:29;;;;;;;9.93;9.63;;;5.30;99.90;;;;;;5102433;28;20299;-82
2021/12/14 01:51:01;;;;;;;9.97;9.67;;;5.30;99.90;;;;;;5102645;28;20229;-82
2021/12/14 01:53:29;;;;;;;10.13;9.83;;;5.40;99.90;;;;;;5102140;28;20232;-82
2021/12/14 01:56:01;;;;;;;10.00;9.70;;;5.40;99.90;;;;;;5101231;28;20226;-82
2021/12/14 01:58:36;;;;;;;9.87;9.57;;;5.40;99.90;;;;;;5102096;28;20243;-82
2021/12/14 02:01:12;;;;;;;10.00;9.70;;;5.40;99.90;;;;;;5102566;28;20228;-82
2021/12/14 02:03:47;;;;;;;10.03;9.73;;;5.40;99.90;;;;;;5102598;28;20225;-83
2021/12/14 02:06:27;;;;;;;10.00;9.70;;;5.40;99.90;;;;;;5101828;28;20266;-83
2021/12/14 02:08:59;;;;;;;9.80;9.50;;;5.50;99.90;;;;;;5106851;28;20264;-83
2021/12/14 02:11:31;;;;;;;10.00;9.70;;;5.50;99.90;;;;;;5106039;28;20243;-83
2021/12/14 02:14:00;;;;;;;10.13;9.83;;;5.50;99.90;;;;;;5103375;28;20217;-83
2021/12/14 02:16:29;;;;;;;10.03;9.73;;;5.50;99.90;;;;;;5102677;28;20217;-83
2021/12/14 02:19:01;;;;;;;9.77;9.47;;;5.50;99.90;;;;;;5102142;28;20241;-83
2021/12/14 02:21:31;;;;;;;9.87;9.57;;;5.40;99.90;;;;;;5101992;28;20302;-83
2021/12/14 02:24:02;;;;;;;10.07;9.77;;;5.40;99.90;;;;;;5102066;28;20221;-83
2021/12/14 02:26:34;;;;;;;10.00;9.70;;;5.30;99.90;;;;;;5103218;28;20315;-83
2021/12/14 02:29:06;;;;;;;9.90;9.60;;;5.30;99.90;;;;;;5102058;28;20252;-82
2021/12/14 02:31:38;;;;;;;10.10;9.80;;;5.30;99.90;;;;;;5103139;28;20237;-83
2021/12/14 02:34:08;;;;;;;9.90;9.60;;;5.30;99.90;;;;;;5102579;28;20229;-83
2021/12/14 02:36:41;;;;;;;10.20;9.90;;;5.20;99.90;;;;;;5103014;28;20222;-82
2021/12/14 02:39:25;;;;;;;10.10;9.80;;;5.10;99.90;;;;;;5102080;28;20292;-83
2021/12/14 02:41:57;;;;;;;10.03;9.73;;;5.00;99.90;;;;;;5102175;28;20295;-83
2021/12/14 02:44:25;;;;;;;10.37;10.07;;;4.90;99.90;;;;;;5102611;28;20229;-83
2021/12/14 02:46:59;;;;;;;10.10;9.80;;;4.90;99.90;;;;;;5105259;28;20236;-82
2021/12/14 02:49:30;;;;;;;10.23;9.93;;;4.90;99.90;;;;;;5106490;28;20234;-82
2021/12/14 02:52:03;;;;;;;10.23;9.93;;;4.80;99.90;;;;;;5106068;28;20312;-82
2021/12/14 02:54:36;;;;;;;10.13;9.83;;;4.80;99.90;;;;;;5105451;28;20228;-82
2021/12/14 02:57:09;;;;;;;10.13;9.83;;;4.70;99.90;;;;;;5105076;28;20240;-82
2021/12/14 02:59:40;;;;;;;10.07;9.77;;;4.70;99.90;;;;;;5105224;28;20242;-82
2021/12/14 03:02:12;;;;;;;10.10;9.80;;;4.70;99.90;;;;;;5105429;28;20241;-83
2021/12/14 03:04:43;;;;;;;9.90;9.60;;;4.70;99.90;;;;;;5105114;28;20314;-83
2021/12/14 03:07:14;;;;;;;9.90;9.60;;;4.80;99.90;;;;;;5110199;28;20332;-83
2021/12/14 03:09:56;;;;;;;9.90;9.60;;;4.70;99.90;;;;;;5109097;28;20234;-82
2021/12/14 03:12:31;;;;;;;10.00;9.70;;;4.70;99.90;;;;;;5107342;28;20226;-82
2021/12/14 03:15:06;;;;;;;10.07;9.77;;;4.70;99.90;;;;;;5105650;28;20266;-82
2021/12/14 03:17:34;;;;;;;9.70;9.40;;;4.60;99.90;;;;;;5105665;28;20244;-82
2021/12/14 03:20:10;;;;;;;9.90;9.60;;;4.60;99.90;;;;;;5105580;28;20247;-82
2021/12/14 03:22:46;;;;;;;9.70;9.40;;;4.60;99.90;;;;;;5105510;28;20249;-83
2021/12/14 03:25:18;;;;;;;9.93;9.63;;;4.60;99.90;;;;;;5105237;28;20243;-82
2021/12/14 03:27:47;;;;;;;9.87;9.57;;;4.50;99.90;;;;;;5104407;28;20225;-82
2021/12/14 03:30:30;;;;;;;10.00;9.70;;;4.50;99.90;;;;;;5104533;28;20290;-83
2021/12/14 03:33:01;;;;;;;9.70;9.40;;;4.40;99.90;;;;;;5105239;28;20226;-83
2021/12/14 03:35:43;;;;;;;9.90;9.60;;;4.40;99.90;;;;;;5104896;28;20230;-82
2021/12/14 03:38:18;;;;;;;9.97;9.67;;;4.40;99.90;;;;;;5104602;28;20272;-83
2021/12/14 03:40:55;;;;;;;10.00;9.70;;;4.40;99.90;;;;;;5105423;28;20228;-83
2021/12/14 03:43:23;;;;;;;9.80;9.50;;;4.50;99.90;;;;;;5106163;28;20237;-82
2021/12/14 03:45:51;;;;;;;9.87;9.57;;;4.50;99.90;;;;;;5119844;28;20214;-83
2021/12/14 03:48:22;;;;;;;9.90;9.60;;;4.50;99.90;;;;;;5120265;28;20378;-83
2021/12/14 03:50:50;;;;;;;10.10;9.80;;;4.40;99.90;;;;;;5115173;28;20290;-82
2021/12/14 03:53:22;;;;;;;9.90;9.60;;;4.40;99.90;;;;;;5116482;28;20353;-83
2021/12/14 03:55:54;;;;;;;9.90;9.60;;;4.40;99.90;;;;;;5118546;28;20221;-83
2021/12/14 03:58:25;;;;;;;9.97;9.67;;;4.50;99.90;;;;;;5115523;28;20222;-83
2021/12/14 04:00:57;;;;;;;10.20;9.90;;;4.50;99.90;;;;;;5113890;28;20260;-82
2021/12/14 04:03:29;;;;;;;10.10;9.80;;;4.50;99.90;;;;;;5108134;28;20956;-82
2021/12/14 04:05:57;;;;;;;9.93;9.63;;;4.60;99.90;;;;;;5105152;28;20240;-81
2021/12/14 04:08:28;;;;;;;10.53;10.13;;;4.50;99.90;;;;;;5103437;28;20221;-82
2021/12/14 04:11:00;;;;;;;10.77;10.37;;;4.50;99.90;;;;;;5103642;28;20712;-82
2021/12/14 04:13:34;;;;;;;10.20;9.90;;;4.50;99.90;;;;;;5105602;28;20230;-82
2021/12/14 04:16:04;;;;;;;10.10;9.80;;;4.50;99.90;;;;;;5105702;28;20221;-82
2021/12/14 04:18:32;;;;;;;10.50;10.10;;;4.50;99.90;;;;;;5105840;28;20252;-82
2021/12/14 04:21:01;;;;;;;10.20;9.90;;;4.50;99.90;;;;;;5105055;28;20233;-81
2021/12/14 04:23:35;;;;;;;9.93;9.63;;;4.50;99.90;;;;;;5106940;28;20283;-84
2021/12/14 04:26:08;;;;;;;10.20;9.90;;;4.50;99.90;;;;;;5107905;28;20237;-82
2021/12/14 04:28:43;;;;;;;10.70;10.30;;;4.50;99.90;;;;;;5107633;28;20234;-82
2021/12/14 04:31:11;;;;;;;10.00;9.70;;;4.50;99.90;;;;;;5107429;28;20221;-82
2021/12/14 04:33:42;;;;;;;9.87;9.57;;;4.50;99.90;;;;;;5107275;28;20230;-82
2021/12/14 04:36:14;;;;;;;10.07;9.77;;;4.50;99.90;;;;;;5106740;28;20225;-82
2021/12/14 04:38:50;;;;;;;9.80;9.50;;;4.40;99.90;;;;;;5105438;28;20229;-82
2021/12/14 04:52:29;;;;;;;9.70;9.40;;;4.30;99.90;;;;;;5104967;28;20233;-83
2021/12/14 04:55:00;;;;;;;9.83;9.53;;;4.30;99.90;;;;;;5103963;28;20225;-83
2021/12/14 04:57:32;;;;;;;9.60;9.30;;;4.30;99.90;;;;;;5103926;28;20303;-82
2021/12/14 05:00:16;;;;;;;10.30;9.93;;;4.30;99.90;;;;;;5106222;28;20443;-82
2021/12/14 05:02:45;;;;;;;10.20;9.90;;;4.30;99.90;;;;;;5104514;28;20294;-83
2021/12/14 05:05:20;;;;;;;9.63;9.33;;;4.30;99.90;;;;;;5104363;28;20264;-82
2021/12/14 05:09:20;;;;;;;9.60;9.30;;;4.20;99.90;;;;;;5106279;28;20288;-83
2021/12/14 05:10:59;;;;;;;9.33;9.03;;;4.20;99.90;;;;;;5104490;28;20328;-82
2021/12/14 05:13:31;;;;;;;9.60;9.30;;;4.20;99.90;;;;;;5105546;28;20283;-83
2021/12/14 05:15:59;;;;;;;9.70;9.40;;;4.20;99.90;;;;;;5105220;28;20240;-83
2021/12/14 05:18:27;;;;;;;9.70;9.40;;;4.20;99.90;;;;;;5104800;28;20303;-82
2021/12/14 05:20:55;;;;;;;9.60;9.30;;;4.20;99.90;;;;;;5105184;28;20248;-82
2021/12/14 05:23:26;;;;;;;9.70;9.40;;;4.10;99.90;;;;;;5105355;28;20256;-82
2021/12/14 05:25:56;;;;;;;9.90;9.60;;;4.10;99.90;;;;;;5105345;28;20221;-82
2021/12/14 05:28:24;;;;;;;9.80;9.50;;;4.10;99.90;;;;;;5104078;28;20274;-82
2021/12/14 05:30:58;;;;;;;9.73;9.43;;;4.00;99.90;;;;;;5105112;28;20218;-82
2021/12/14 05:33:31;;;;;;;9.60;9.30;;;4.00;99.90;;;;;;5105492;28;20225;-82
2021/12/14 05:36:05;;;;;;;9.70;9.40;;;4.00;99.90;;;;;;5105741;28;20221;-82
2021/12/14 05:38:46;;;;;;;9.67;9.37;;;3.90;99.90;;;;;;5106033;28;20288;-83
2021/12/14 05:44:01;;;;;;;9.90;9.60;;;3.90;99.90;;;;;;5110553;28;20275;-84
2021/12/14 05:46:29;;;;;;;10.00;9.70;;;3.90;99.90;;;;;;5107905;28;20336;-84
2021/12/14 05:48:59;;;;;;;9.77;9.47;;;3.90;99.90;;;;;;5109056;28;20233;-84
2021/12/14 05:51:29;;;;;;;10.00;9.70;;;3.90;99.90;;;;;;5113251;28;20217;-83
2021/12/14 05:53:59;;;;;;;10.10;9.80;;;3.90;99.90;;;;;;5112491;28;20235;-83
2021/12/14 05:56:30;;;;;;;10.00;9.70;;;4.00;99.90;;;;;;5112422;28;20299;-82
2021/12/14 05:59:01;;;;;;;10.17;9.87;;;4.00;99.90;;;;;;5114585;28;20248;-82
2021/12/14 06:01:33;;;;;;;10.20;9.90;;;4.10;99.90;;;;;;5116354;28;20217;-82
2021/12/14 06:04:04;;;;;;;10.70;10.30;;;4.10;99.90;;;;;;5115022;28;20275;-83
2021/12/14 06:06:36;;;;;;;10.00;9.70;;;4.10;99.90;;;;;;5116694;28;20212;-83
2021/12/14 06:09:09;;;;;;;10.30;10.00;;;4.10;99.90;;;;;;5116455;28;20283;-83
2021/12/14 06:11:39;;;;;;;10.13;9.83;;;4.10;99.90;;;;;;5116491;28;20271;-83
2021/12/14 06:14:16;;;;;;;10.07;9.77;;;4.20;99.90;;;;;;5116091;28;20248;-83
2021/12/14 06:16:45;;;;;;;9.83;9.53;;;4.20;99.90;;;;;;5116360;28;20217;-83
2021/12/14 06:19:18;;;;;;;9.93;9.63;;;4.20;99.90;;;;;;5115464;28;20233;-82
2021/12/14 06:21:49;;;;;;;10.20;9.90;;;4.20;99.90;;;;;;5119624;28;20229;-83
2021/12/14 06:24:17;;;;;;;9.70;9.40;;;4.20;99.90;;;;;;5127727;27;20275;-83
2021/12/14 06:26:49;;;;;;;10.40;10.00;;;4.20;99.90;;;;;;5138377;27;20326;-83
2021/12/14 06:29:24;;;;;;;10.00;9.70;;;4.20;99.90;;;;;;5167135;22;20228;-83
2021/12/14 06:31:53;;;;;;;9.87;9.57;;;4.20;99.90;;;;;;5163763;27;20207;-82
2021/12/14 06:34:25;;;;;;;10.90;10.50;;;4.20;99.90;;;;;;5164287;27;20231;-82
2021/12/14 06:37:53;;;;;;;10.20;9.90;;;4.20;99.90;;;;;;5164094;27;20234;-82
2021/12/14 06:40:26;;;;;;;10.10;9.80;;;4.10;99.90;;;;;;5142405;27;20256;-82
2021/12/14 06:43:02;;;;;;;9.83;9.53;;;4.10;99.90;;;;;;5142599;27;20259;-82
2021/12/14 06:45:33;;;;;;;10.10;9.80;;;4.10;99.90;;;;;;5148429;27;20239;-82
2021/12/14 06:48:06;;;;;;;10.60;10.20;;;4.10;99.90;;;;;;5162485;27;20246;-82
2021/12/14 06:50:40;;;;;;;10.20;9.90;;;4.00;99.90;;;;;;5133768;27;20236;-83
2021/12/14 06:53:12;;;;;;;10.70;10.30;;;4.00;99.90;;;;;;5104636;28;20252;-82
2021/12/14 06:55:41;;;;;;;10.63;10.23;;;4.00;99.90;;;;;;5108740;28;20238;-82
2021/12/14 06:58:16;;;;;;;10.33;10.03;;;4.00;99.90;;;;;;5111679;28;20311;-82
2021/12/14 07:00:48;;;;;;;10.70;10.30;;;4.00;99.90;;;;;;5111961;28;20260;-82
2021/12/14 07:03:17;;;;;;;10.30;10.00;;;4.00;99.90;;;;;;5105796;28;20231;-82
2021/12/14 07:05:49;;;;;;;10.40;10.10;;;3.90;99.90;;;;;;5106439;28;20240;-81
2021/12/14 07:08:26;;;;;;;10.60;10.20;;;3.90;99.90;;;;;;5126106;27;20239;-83
2021/12/14 07:10:55;;;;;;;11.30;10.90;;;3.90;99.90;;;;;;5143484;27;20383;-82
2021/12/14 07:13:36;;;;;;;10.80;10.40;;;3.90;99.90;;;;;;5152641;27;20224;-82
2021/12/14 07:16:20;;;;;;;10.47;10.17;;;4.00;99.90;;;;;;5147411;27;20223;-82
2021/12/14 07:18:52;;;;;;;10.60;10.20;;;4.00;99.90;;;;;;5144626;27;20228;-83
2021/12/14 07:21:45;;;;;;;10.30;10.00;;;4.00;99.90;;;;;;5144367;27;20318;-80
2021/12/14 07:24:37;;;;;;;10.40;10.10;;;4.00;99.90;;;;;;5144051;27;20204;-81
2021/12/14 07:27:27;;;;;;;10.60;10.30;;;4.00;99.90;;;;;;5109472;27;20239;-81
2021/12/14 07:30:21;;;;;;;11.10;10.70;;;4.00;99.90;;;;;;5133324;27;20277;-81
2021/12/14 07:32:56;;;;;;;10.53;10.23;;;4.00;99.90;;;;;;5127428;27;20247;-81
2021/12/14 07:35:42;;;;;;;10.73;10.33;;;4.10;99.90;;;;;;5120576;28;20213;-81
2021/12/14 07:38:41;;;;;;;10.70;10.30;;;4.10;99.90;;;;;;5121448;28;20240;-80
2021/12/14 07:41:24;;;;;;;10.40;10.10;;;4.10;99.90;;;;;;5076257;28;20305;-80
2021/12/14 07:43:58;;;;;;;10.80;10.40;;;4.10;99.90;;;;;;5127689;28;20275;-80
2021/12/14 07:46:34;;;;;;;9.90;9.60;;;4.10;99.90;;;;;;5131424;28;20294;-81
2021/12/14 07:49:07;;;;;;;9.93;9.63;;;4.10;99.90;;;;;;5131302;28;20225;-81
2021/12/14 07:51:39;;;;;;;10.20;9.90;;;4.10;99.90;;;;;;5137484;27;20235;-81
2021/12/14 07:54:10;;;;;;;10.10;9.80;;;4.20;99.90;;;;;;5141694;27;20235;-81
2021/12/14 07:56:45;;;;;;;10.10;9.80;;;4.20;99.90;;;;;;5142156;27;20221;-82
2021/12/14 07:59:23;;;;;;;9.43;9.13;;;4.20;99.90;;;;;;5144011;27;20232;-84
2021/12/14 08:02:12;;;;;;;10.10;9.80;;;4.20;99.90;;;;;;5148724;27;20220;-81
2021/12/14 08:04:44;;;;;;;9.93;9.63;;;4.20;99.90;;;;;;5155495;27;20281;-78
2021/12/14 08:07:26;;;;;;;10.00;9.70;;;4.20;99.90;;;;;;5152638;27;20224;-78
2021/12/14 08:09:57;;;;;;;10.00;9.70;;;4.20;99.90;;;;;;5139606;27;20290;-78
2021/12/14 08:12:33;;;;;;;9.77;9.47;;;4.20;99.90;;;;;;5139491;27;20231;-78
2021/12/14 08:15:18;;;;;;;10.20;9.90;;;4.20;99.90;;;;;;5133983;27;20232;-80
2021/12/14 08:18:04;;;;;;;10.20;9.90;;;4.20;99.90;;;;;;5141307;27;20259;-79
2021/12/14 08:20:34;;;;;;;10.43;10.13;;;4.10;99.90;;;;;;5129209;27;20235;-79
2021/12/14 08:23:17;;;;;;;10.23;9.93;;;4.10;99.90;;;;;;5129270;27;20224;-79
2021/12/14 08:25:45;;;;;;;10.10;9.80;;;4.10;99.90;;;;;;5120376;28;20221;-82
2021/12/14 08:28:17;;;;;;;10.60;10.20;;;4.10;99.90;;;;;;5121047;28;20275;-79
2021/12/14 08:30:59;;;;;;;10.20;9.90;;;4.00;99.90;;;;;;5127015;27;20280;-79
2021/12/14 08:33:30;;;;;;;10.20;9.90;;;4.00;99.90;;;;;;5134462;27;20228;-79
2021/12/14 08:36:02;;;;;;;10.20;9.90;;;4.00;99.90;;;;;;5136489;27;20232;-79
2021/12/14 08:38:32;;;;;;;10.00;9.70;;;4.00;99.90;;;;;;5119159;28;20225;-79
2021/12/14 08:41:13;;;;;;;10.20;9.90;;;4.10;99.90;;;;;;5117786;28;20711;-79
2021/12/14 08:43:48;;;;;;;9.97;9.67;;;4.20;99.90;;;;;;5116664;27;20228;-80
2021/12/14 08:46:20;;;;;;;10.13;9.83;;;4.20;99.90;;;;;;5098726;28;20246;-80
2021/12/14 08:48:54;;;;;;;9.67;9.37;;;4.20;99.90;;;;;;5099528;28;20234;-80
2021/12/14 08:51:26;;;;;;;10.20;9.90;;;4.20;99.90;;;;;;5099825;28;20233;-80
2021/12/14 08:53:59;;;;;;;10.23;9.93;;;4.30;99.90;;;;;;5099002;28;20291;-81
2021/12/14 08:56:32;;;;;;;10.20;9.90;;;4.30;99.90;;;;;;5099191;28;20233;-80
2021/12/14 08:59:01;;;;;;;9.90;9.60;;;4.40;99.90;;;;;;5106352;28;20221;-80
2021/12/14 09:01:31;;;;;;;10.13;9.83;;;4.30;99.90;;;;;;5101663;28;20259;-81
2021/12/14 09:04:08;;;;;;;9.90;9.60;;;4.30;99.90;;;;;;5110546;28;20236;-80
2021/12/14 09:06:45;;;;;;;9.90;9.60;;;4.30;99.90;;;;;;5116234;27;20235;-80
2021/12/14 09:09:17;;;;;;;9.90;9.60;;;4.30;99.90;;;;;;5140372;27;20242;-80
2021/12/14 09:11:48;;;;;;;10.20;9.90;;;4.40;99.90;;;;;;5139576;27;20230;-80
2021/12/14 09:14:18;;;;;;;10.32;10.02;;;4.40;99.90;;;;;;5139002;27;20405;-80
2021/12/14 09:16:51;;;;;;;10.40;10.10;;;4.50;99.90;;;;;;5139509;27;20220;-81
2021/12/14 09:19:25;;;;;;;10.27;9.97;;;4.50;99.90;;;;;;5139755;27;20293;-80
2021/12/14 09:21:58;;;;;;;10.00;9.70;;;4.50;99.90;;;;;;5139648;27;20223;-81
2021/12/14 09:24:29;;;;;;;9.97;9.67;;;4.50;99.90;;;;;;5140064;27;20236;-80
2021/12/14 09:27:05;;;;;;;9.60;9.30;;;4.50;99.90;;;;;;5124408;27;20236;-80
2021/12/14 09:29:34;;;;;;;10.10;9.80;;;4.50;99.90;;;;;;5119585;28;20233;-81
2021/12/14 09:32:08;;;;;;;9.63;9.33;;;4.50;99.90;;;;;;5120629;28;20228;-81
2021/12/14 09:34:41;;;;;;;9.80;9.50;;;4.50;99.90;;;;;;5120048;28;20278;-81
2021/12/14 09:37:11;;;;;;;9.70;9.40;;;4.60;99.90;;;;;;5119483;28;20219;-80
2021/12/14 09:39:47;;;;;;;9.87;9.57;;;4.60;99.90;;;;;;5118761;28;20227;-80
2021/12/14 09:42:21;;;;;;;10.07;9.77;;;4.60;99.90;;;;;;5120108;28;20232;-79
2021/12/14 09:44:52;;;;;;;10.10;9.80;;;4.60;99.90;;;;;;5120625;27;20236;-82
2021/12/14 09:47:25;;;;;;;10.00;9.70;;;4.60;99.90;;;;;;5127778;27;20244;-79
2021/12/14 09:50:01;;;;;;;10.40;10.10;;;4.60;99.90;;;;;;5119702;28;20228;-81
2021/12/14 09:52:33;;;;;;;9.90;9.60;;;4.60;99.90;;;;;;5121418;28;20239;-79
2021/12/14 09:55:06;;;;;;;9.87;9.57;;;4.70;99.90;;;;;;5129767;28;20240;-80
2021/12/14 09:57:37;;;;;;;10.30;10.00;;;4.70;99.90;;;;;;5130439;27;20229;-79
2021/12/14 10:00:16;;;;;;;10.27;9.97;;;4.80;99.90;;;;;;5121462;28;20236;-80
2021/12/14 10:02:46;;;;;;;10.77;10.37;;;4.80;99.90;;;;;;5122212;28;20228;-79
2021/12/14 10:05:21;;;;;;;10.00;9.70;;;4.80;99.90;;;;;;5121928;28;20307;-81
2021/12/14 10:07:49;;;;;;;10.47;10.17;;;4.80;99.90;;;;;;5122782;28;20259;-80
2021/12/14 10:10:19;;;;;;;9.93;9.63;;;4.80;99.90;;;;;;5123676;27;20280;-80
2021/12/14 10:12:51;;;;;;;10.10;9.80;;;4.90;99.90;;;;;;5122474;28;20224;-78
2021/12/14 10:15:29;;;;;;;10.03;9.73;;;4.90;99.90;;;;;;5123631;28;20224;-79
2021/12/14 10:18:03;;;;;;;9.97;9.67;;;5.00;99.90;;;;;;5133382;28;20228;-78
2021/12/14 10:20:38;;;;;;;10.00;9.70;;;5.10;99.90;;;;;;5129402;28;20228;-79
2021/12/14 10:23:06;;;;;;;10.10;9.80;;;5.10;99.90;;;;;;5123571;28;20235;-79
2021/12/14 10:25:35;;;;;;;9.90;9.60;;;5.10;99.90;;;;;;5122633;28;20240;-79
2021/12/14 10:28:04;;;;;;;10.00;9.70;;;5.20;99.90;;;;;;5122002;28;20236;-79
2021/12/14 10:30:39;;;;;;;9.60;9.30;;;5.20;99.90;;;;;;5121590;28;20235;-80
2021/12/14 10:33:11;;;;;;;10.50;10.20;;;5.20;99.90;;;;;;5122568;28;20248;-82
2021/12/14 10:35:51;;;;;;;9.70;9.40;;;5.30;99.90;;;;;;5121664;28;20251;-82
2021/12/14 10:38:28;;;;;;;10.20;9.90;;;5.30;99.90;;;;;;5122483;28;20320;-80
2021/12/14 10:43:45;;;;;;;9.67;9.37;;;5.40;99.90;;;;;;5130764;28;20220;-80
2021/12/14 10:46:18;;;;;;;9.50;9.20;;;5.50;99.90;;;;;;5134332;28;20278;-82
2021/12/14 10:48:49;;;;;;;9.70;9.40;;;5.60;99.90;;;;;;5136464;28;20254;-81
2021/12/14 10:51:25;;;;;;;9.77;9.47;;;5.60;99.90;;;;;;5105662;28;20229;-82
2021/12/14 10:53:55;;;;;;;9.83;9.53;;;5.70;99.90;;;;;;5109143;28;20255;-79
2021/12/14 10:56:30;;;;;;;9.80;9.50;;;5.70;99.90;;;;;;5103557;28;20230;-80
2021/12/14 10:59:04;;;;;;;9.80;9.50;;;5.70;99.90;;;;;;5099820;28;20282;-82
2021/12/14 11:01:34;;;;;;;9.80;9.50;;;5.80;99.90;;;;;;5101681;28;20280;-80
2021/12/14 11:04:08;;;;;;;9.33;9.03;;;5.80;99.90;;;;;;5101228;28;20287;-80
2021/12/14 11:06:45;;;;;;;9.50;9.20;;;5.70;99.90;;;;;;5101669;28;20229;-80
2021/12/14 11:09:42;;;;;;;9.77;9.47;;;5.70;99.90;;;;;;5101401;28;20232;-80
2021/12/14 11:12:22;;;;;;;9.53;9.23;;;5.80;99.90;;;;;;5101596;28;20236;-80
2021/12/14 11:14:55;;;;;;;9.70;9.40;;;5.80;99.90;;;;;;5102464;28;20286;-80
2021/12/14 11:20:19;;;;;;;9.67;9.37;;;5.90;99.90;;;;;;5102255;28;20221;-82
2021/12/14 11:22:57;;;;;;;9.50;9.20;;;5.80;99.90;;;;;;5100621;28;20227;-82
2021/12/14 11:25:29;;;;;;;9.50;9.20;;;5.80;99.90;;;;;;5101635;28;20310;-82
2021/12/14 11:28:00;;;;;;;9.50;9.20;;;5.90;99.90;;;;;;5100210;28;20229;-82
2021/12/14 11:30:32;;;;;;;9.60;9.30;;;5.80;99.90;;;;;;5099054;28;20248;-82
2021/12/14 11:33:16;;;;;;;9.50;9.20;;;5.80;99.90;;;;;;5099596;28;20325;-82
2021/12/14 11:35:48;;;;;;;9.60;9.30;;;5.90;99.90;;;;;;5100051;28;20321;-83
2021/12/14 11:38:43;;;;;;;9.80;9.50;;;5.80;99.90;;;;;;5101147;28;20244;-82
2021/12/14 11:41:34;;;;;;;9.60;9.30;;;5.90;99.90;;;;;;5100239;28;20291;-82
2021/12/14 11:44:16;;;;;;;10.00;9.70;;;5.90;99.90;;;;;;5099655;28;20316;-82
2021/12/14 11:47:04;;;;;;;9.50;9.20;;;6.00;99.90;;;;;;5099868;28;20233;-81
2021/12/14 11:49:50;;;;;;;9.67;9.37;;;6.00;99.90;;;;;;5099687;28;20248;-82
2021/12/14 11:52:40;;;;;;;9.73;9.43;;;5.90;99.90;;;;;;5100440;28;20229;-82
2021/12/14 11:55:28;;;;;;;9.70;9.40;;;6.00;99.90;;;;;;5100753;28;20688;-81
2021/12/14 11:58:13;;;;;;;9.60;9.30;;;6.00;99.90;;;;;;5109751;28;20234;-81
2021/12/14 12:00:46;;;;;;;9.53;9.23;;;5.90;99.90;;;;;;5105656;28;20237;-82
2021/12/14 12:03:33;;;;;;;9.63;9.33;;;5.90;99.90;;;;;;5104505;28;20225;-81
2021/12/14 12:06:13;;;;;;;9.57;9.27;;;5.90;99.90;;;;;;5109092;28;20224;-81
2021/12/14 12:11:39;;;;;;;9.70;9.40;;;6.00;99.90;;;;;;5102629;28;20256;-80
2021/12/14 12:14:26;;;;;;;9.83;9.53;;;6.00;99.90;;;;;;5110254;28;20216;-80
2021/12/14 12:17:01;;;;;;;9.70;9.40;;;6.00;99.90;;;;;;5121854;27;20210;-81
2021/12/14 12:19:31;;;;;;;9.70;9.40;;;6.10;99.90;;;;;;5125505;27;20234;-80
2021/12/14 12:22:10;;;;;;;9.60;9.30;;;6.10;99.90;;;;;;5121697;28;20259;-80
2021/12/14 12:24:46;;;;;;;9.90;9.60;;;6.10;99.90;;;;;;5121613;28;20239;-80
2021/12/14 12:27:34;;;;;;;9.83;9.53;;;6.20;99.90;;;;;;5111545;27;20227;-81
2021/12/14 12:30:40;;;;;;;9.73;9.43;;;6.10;99.90;;;;;;5147831;22;20228;-79
2021/12/14 12:33:28;;;;;;;9.60;9.30;;;6.10;99.90;;;;;;5126414;27;20219;-80
2021/12/14 12:36:14;;;;;;;9.70;9.40;;;6.00;99.90;;;;;;5144508;27;20212;-80
2021/12/14 12:38:57;;;;;;;9.50;9.20;;;6.00;99.90;;;;;;5128768;28;20228;-81
2021/12/14 12:41:37;;;;;;;9.33;9.03;;;6.00;99.90;;;;;;5105330;28;20229;-80
2021/12/14 12:44:12;;;;;;;9.47;9.17;;;6.00;99.90;;;;;;5104550;28;20236;-80
2021/12/14 12:46:44;;;;;;;9.60;9.30;;;6.00;99.90;;;;;;5119686;28;20224;-80
2021/12/14 12:49:19;;;;;;;9.40;9.10;;;6.00;99.90;;;;;;5090243;28;20237;-80
2021/12/14 12:52:07;;;;;;;9.60;9.30;;;6.00;99.90;;;;;;5086343;28;20224;-80
2021/12/14 12:55:06;;;;;;;9.50;9.20;;;6.00;99.90;;;;;;5083196;28;20236;-80
2021/12/14 12:57:54;;;;;;;9.00;8.70;;;6.00;99.90;;;;;;5082502;28;20240;-80
2021/12/14 13:00:46;;;;;;;9.40;9.10;;;6.00;99.90;;;;;;5082847;28;20238;-80
2021/12/14 13:03:18;;;;;;;9.20;8.90;;;6.00;99.90;;;;;;5081884;28;20237;-80
2021/12/14 13:05:53;;;;;;;8.93;8.63;;;6.00;99.90;;;;;;5083473;28;20261;-80
2021/12/14 13:08:31;;;;;;;9.20;8.90;;;6.00;99.90;;;;;;5117080;28;20224;-81
2021/12/14 13:11:09;;;;;;;9.33;9.03;;;5.90;99.90;;;;;;5110870;28;20221;-80
2021/12/14 13:13:41;;;;;;;9.27;8.97;;;5.90;99.90;;;;;;5119221;28;21092;-80
2021/12/14 13:16:17;;;;;;;9.10;8.80;;;5.90;99.90;;;;;;5081842;28;20226;-80
2021/12/14 13:18:56;;;;;;;9.00;8.70;;;5.90;99.90;;;;;;5081901;28;20256;-80
2021/12/14 13:21:36;;;;;;;9.30;9.00;;;5.80;99.90;;;;;;5082525;28;21099;-81
2021/12/14 13:24:12;;;;;;;9.03;8.73;;;5.80;99.90;;;;;;5082659;28;20233;-81
2021/12/14 13:26:51;;;;;;;9.17;8.87;;;5.80;99.90;;;;;;5082993;28;20288;-80
2021/12/14 13:29:37;;;;;;;9.10;8.80;;;5.90;99.90;;;;;;5091001;28;20240;-81
2021/12/14 13:32:15;;;;;;;9.00;8.70;;;5.80;99.90;;;;;;5106955;28;20212;-80
2021/12/14 13:34:53;;;;;;;9.43;9.13;;;5.80;99.90;;;;;;5123287;28;20221;-81
2021/12/14 13:37:25;;;;;;;9.30;9.00;;;5.70;99.90;;;;;;5118452;28;20243;-82
2021/12/14 13:42:51;;;;;;;9.40;9.10;;;5.80;99.90;;;;;;5081562;28;20221;-80
2021/12/14 13:45:28;;;;;;;9.10;8.80;;;5.90;99.90;;;;;;5081983;28;20276;-80
2021/12/14 13:48:05;;;;;;;9.20;8.90;;;5.80;99.90;;;;;;5082134;28;20240;-80
2021/12/14 13:50:37;;;;;;;9.20;8.90;;;5.80;99.90;;;;;;5081854;28;20253;-81
2021/12/14 13:53:05;;;;;;;9.20;8.90;;;5.80;99.90;;;;;;5081648;28;20241;-80
2021/12/14 13:55:42;;;;;;;9.00;8.70;;;5.90;99.90;;;;;;5080320;28;20256;-80
2021/12/14 13:58:16;;;;;;;9.10;8.80;;;5.80;99.90;;;;;;5092215;28;20233;-80